createdAt,value
2018-12-05T00:00:35.883Z,78.95
2018-12-05T00:03:04.662Z,78.96
2018-12-05T00:05:33.435Z,79.27
2018-12-05T00:08:02.201Z,79.34
2018-12-05T00:10:30.941Z,79.65
2018-12-05T00:12:59.644Z,79.57
2018-12-05T00:15:28.370Z,79.85
2018-12-05T00:17:57.128Z,79.81
2018-12-05T00:20:32.296Z,79.82
2018-12-05T00:23:01.048Z,80.39
2018-12-05T00:25:29.792Z,80.51
2018-12-05T00:27:58.530Z,80.31
2018-12-05T00:30:27.393Z,80.57
2018-12-05T00:32:56.184Z,80.52
2018-12-05T00:35:24.946Z,81.05
2018-12-05T00:37:53.791Z,81.21
2018-12-05T00:40:22.677Z,81.12
2018-12-05T00:42:51.477Z,81.50
2018-12-05T00:45:20.292Z,81.90
2018-12-05T00:47:49.058Z,81.55
2018-12-05T00:50:17.898Z,81.83
2018-12-05T00:52:46.704Z,81.86
2018-12-05T00:55:15.495Z,82.13
2018-12-05T00:57:44.279Z,82.43
2018-12-05T01:00:13.562Z,82.30
2018-12-05T01:02:42.903Z,82.56
2018-12-05T01:05:11.690Z,82.74
2018-12-05T01:07:40.424Z,83.41
2018-12-05T01:10:09.659Z,83.87
2018-12-05T01:12:38.402Z,84.22
2018-12-05T01:15:08.383Z,84.36
2018-12-05T01:17:37.095Z,84.12
2018-12-05T01:20:06.661Z,83.86
2018-12-05T01:22:35.858Z,84.19
2018-12-05T01:25:06.048Z,83.50
2018-12-05T01:27:34.862Z,83.74
2018-12-05T01:30:08.013Z,83.64
2018-12-05T01:32:36.744Z,83.13
2018-12-05T01:35:05.974Z,83.20
2018-12-05T01:37:34.770Z,83.69
2018-12-05T01:40:04.326Z,83.78
2018-12-05T01:42:33.497Z,83.61
2018-12-05T01:45:02.238Z,83.88
2018-12-05T01:47:31.061Z,83.58
2018-12-05T01:50:00.042Z,83.41
2018-12-05T01:52:28.791Z,83.51
2018-12-05T01:54:57.572Z,83.61
2018-12-05T01:57:26.330Z,83.42
2018-12-05T01:59:55.121Z,83.34
2018-12-05T02:02:23.876Z,83.74
2018-12-05T02:04:52.644Z,83.53
2018-12-05T02:07:21.713Z,84.15
2018-12-05T02:09:50.468Z,84.17
2018-12-05T02:12:19.295Z,84.95
2018-12-05T02:14:48.041Z,84.80
2018-12-05T02:17:16.895Z,85.73
2018-12-05T02:19:45.680Z,85.82
2018-12-05T02:22:14.476Z,86.44
2018-12-05T02:24:43.730Z,87.65
2018-12-05T02:27:12.594Z,88.15
2018-12-05T02:29:46.675Z,88.83
2018-12-05T02:32:15.853Z,89.41
2018-12-05T02:34:44.613Z,89.68
2018-12-05T02:37:13.425Z,89.87
2018-12-05T02:39:42.169Z,90.33
2018-12-05T02:42:10.911Z,90.42
2018-12-05T02:44:39.712Z,90.80
2018-12-05T02:47:08.511Z,90.74
2018-12-05T02:49:37.283Z,91.10
2018-12-05T02:52:06.656Z,91.30
2018-12-05T02:54:35.400Z,91.16
2018-12-05T02:57:04.139Z,91.25
2018-12-05T02:59:32.858Z,91.86
2018-12-05T03:02:01.712Z,91.52
2018-12-05T03:04:30.471Z,92.02
2018-12-05T03:06:59.221Z,92.15
2018-12-05T03:09:27.997Z,92.54
2018-12-05T03:11:56.801Z,92.13
2018-12-05T03:14:25.513Z,92.35
2018-12-05T03:16:54.736Z,92.34
2018-12-05T03:19:23.529Z,91.86
2018-12-05T03:21:52.239Z,91.85
2018-12-05T03:24:20.963Z,91.56
2018-12-05T03:26:49.681Z,91.16
2018-12-05T03:29:18.386Z,91.36
2018-12-05T03:31:47.134Z,90.28
2018-12-05T03:34:15.833Z,90.90
2018-12-05T03:36:44.588Z,90.43
2018-12-05T03:39:13.298Z,91.12
2018-12-05T03:41:42.008Z,91.50
2018-12-05T03:44:10.715Z,91.37
2018-12-05T03:46:39.489Z,91.56
2018-12-05T03:49:08.187Z,91.78
2018-12-05T03:51:36.899Z,91.85
2018-12-05T03:54:06.144Z,91.82
2018-12-05T03:56:34.884Z,91.65
2018-12-05T03:59:03.623Z,91.94
2018-12-05T04:01:32.337Z,91.94
2018-12-05T04:04:01.080Z,92.03
2018-12-05T04:06:30.333Z,91.90
2018-12-05T04:08:59.065Z,91.82
2018-12-05T04:11:27.833Z,92.17
2018-12-05T04:13:56.572Z,92.35
2018-12-05T04:16:25.263Z,92.21
2018-12-05T04:18:53.976Z,92.06
2018-12-05T04:21:23.224Z,91.90
2018-12-05T04:23:51.997Z,91.81
2018-12-05T04:26:20.819Z,91.61
2018-12-05T04:28:49.559Z,91.51
2018-12-05T04:31:18.306Z,91.00
2018-12-05T04:33:47.317Z,91.32
2018-12-05T04:36:16.041Z,90.94
2018-12-05T04:38:49.291Z,90.68
2018-12-05T04:41:18.067Z,90.73
2018-12-05T04:43:46.901Z,90.53
2018-12-05T04:46:15.632Z,90.12
2018-12-05T04:48:44.387Z,89.77
2018-12-05T04:51:13.086Z,89.92
2018-12-05T04:53:41.880Z,89.85
2018-12-05T04:56:10.759Z,90.01
2018-12-05T04:58:39.519Z,89.58
2018-12-05T05:01:08.322Z,89.67
2018-12-05T05:03:37.184Z,89.51
2018-12-05T05:06:06.552Z,89.43
2018-12-05T05:08:35.315Z,89.22
2018-12-05T05:11:04.076Z,88.86
2018-12-05T05:13:32.846Z,88.63
2018-12-05T05:16:01.618Z,88.50
2018-12-05T05:18:30.351Z,88.64
2018-12-05T05:20:59.158Z,88.21
2018-12-05T05:23:27.959Z,87.49
2018-12-05T05:25:56.748Z,87.18
2018-12-05T05:28:25.581Z,88.25
2018-12-05T05:30:54.346Z,86.98
2018-12-05T05:33:23.128Z,87.33
2018-12-05T05:35:51.955Z,87.59
2018-12-05T05:38:20.752Z,86.98
2018-12-05T05:40:50.863Z,87.22
2018-12-05T05:43:19.682Z,86.27
2018-12-05T05:45:49.959Z,86.57
2018-12-05T05:48:18.763Z,86.40
2018-12-05T05:50:47.596Z,85.34
2018-12-05T05:53:16.390Z,84.67
2018-12-05T05:55:45.770Z,84.48
2018-12-05T05:58:15.084Z,83.62
2018-12-05T06:00:43.892Z,83.38
2018-12-05T06:03:12.736Z,83.47
2018-12-05T06:05:41.505Z,83.07
2018-12-05T06:08:10.269Z,82.82
2018-12-05T06:10:39.709Z,82.23
2018-12-05T06:13:08.454Z,81.40
2018-12-05T06:15:37.250Z,81.45
2018-12-05T06:20:40.288Z,80.57
2018-12-05T06:23:09.132Z,79.83
2018-12-05T06:25:37.955Z,79.63
2018-12-05T06:28:06.753Z,78.48
2018-12-05T06:30:35.693Z,78.39
2018-12-05T06:33:04.540Z,76.95
2018-12-05T06:35:33.384Z,76.78
2018-12-05T06:38:02.165Z,76.84
2018-12-05T06:40:30.965Z,76.51
2018-12-05T06:42:59.791Z,75.90
2018-12-05T06:45:28.541Z,76.41
2018-12-05T06:47:57.318Z,75.52
2018-12-05T06:50:26.133Z,74.42
2018-12-05T06:52:54.896Z,75.18
2018-12-05T06:55:23.726Z,74.30
2018-12-05T06:57:52.520Z,74.58
2018-12-05T07:00:21.366Z,75.41
2018-12-05T07:02:50.306Z,75.51
2018-12-05T07:05:19.133Z,74.79
2018-12-05T07:07:47.877Z,75.16
2018-12-05T07:10:16.611Z,74.44
2018-12-05T07:12:45.380Z,74.64
2018-12-05T07:15:14.063Z,74.18
2018-12-05T07:17:42.829Z,73.92
2018-12-05T07:20:11.539Z,73.73
2018-12-05T07:22:41.106Z,73.01
2018-12-05T07:25:09.809Z,72.97
2018-12-05T07:27:38.570Z,72.06
2018-12-05T07:30:09.759Z,72.42
2018-12-05T07:32:38.433Z,71.93
2018-12-05T07:35:08.003Z,71.62
2018-12-05T07:37:36.789Z,71.02
2018-12-05T07:40:06.043Z,70.47
2018-12-05T07:42:34.815Z,70.58
2018-12-05T07:45:04.390Z,70.67
2018-12-05T07:47:33.078Z,70.35
2018-12-05T07:50:01.846Z,70.49
2018-12-05T07:52:30.590Z,70.36
2018-12-05T07:54:59.266Z,69.74
2018-12-05T07:57:27.955Z,70.08
2018-12-05T07:59:56.636Z,69.39
2018-12-05T08:02:25.350Z,69.01
2018-12-05T08:04:54.031Z,70.67
2018-12-05T08:07:22.813Z,68.70
2018-12-05T08:09:51.523Z,68.06
2018-12-05T08:12:20.264Z,67.80
2018-12-05T08:14:49.011Z,67.58
2018-12-05T08:17:17.772Z,67.73
2018-12-05T08:19:48.204Z,68.04
2018-12-05T08:22:17.332Z,68.16
2018-12-05T08:24:46.054Z,68.07
2018-12-05T08:27:14.810Z,68.27
2018-12-05T08:29:43.552Z,68.09
2018-12-05T08:32:12.366Z,67.43
2018-12-05T08:34:41.142Z,68.13
2018-12-05T08:37:09.862Z,68.10
2018-12-05T08:39:38.654Z,67.86
2018-12-05T08:42:07.422Z,68.45
2018-12-05T08:44:36.282Z,68.41
2018-12-05T08:47:04.961Z,68.05
2018-12-05T08:49:33.719Z,67.77
2018-12-05T08:52:02.478Z,67.25
2018-12-05T08:54:31.450Z,67.67
2018-12-05T08:57:00.165Z,67.44
2018-12-05T08:59:28.963Z,66.50
2018-12-05T09:01:57.703Z,66.43
2018-12-05T09:04:26.541Z,66.24
2018-12-05T09:06:55.272Z,65.07
2018-12-05T09:09:24.019Z,65.28
2018-12-05T09:11:52.843Z,65.88
2018-12-05T09:14:28.586Z,65.78
2018-12-05T09:16:52.348Z,65.33
2018-12-05T09:19:21.088Z,65.19
2018-12-05T09:21:50.002Z,64.97
2018-12-05T09:24:18.706Z,64.73
2018-12-05T09:26:47.475Z,64.96
2018-12-05T09:29:16.171Z,65.85
2018-12-05T09:31:45.354Z,65.43
2018-12-05T09:34:14.426Z,65.37
2018-12-05T09:36:43.184Z,65.28
2018-12-05T09:39:11.949Z,65.69
2018-12-05T09:41:40.737Z,64.99
2018-12-05T09:44:09.407Z,65.49
2018-12-05T09:46:38.148Z,65.28
2018-12-05T09:49:06.970Z,64.59
2018-12-05T09:51:35.807Z,65.10
2018-12-05T09:54:04.576Z,65.14
2018-12-05T09:56:33.351Z,65.17
2018-12-05T09:59:02.104Z,65.35
2018-12-05T10:01:30.858Z,65.70
2018-12-05T10:03:59.609Z,66.31
2018-12-05T10:06:28.304Z,66.20
2018-12-05T10:08:57.028Z,66.50
2018-12-05T10:11:25.828Z,66.63
2018-12-05T10:13:54.526Z,66.86
2018-12-05T10:16:23.368Z,66.70
2018-12-05T10:18:52.137Z,67.19
2018-12-05T10:21:20.919Z,67.25
2018-12-05T10:23:49.771Z,67.40
2018-12-05T10:26:18.683Z,67.32
2018-12-05T10:28:47.996Z,67.63
2018-12-05T10:31:16.846Z,67.94
2018-12-05T10:33:45.584Z,68.48
2018-12-05T10:36:14.375Z,68.26
2018-12-05T10:38:43.064Z,68.13
2018-12-05T10:41:11.876Z,68.22
2018-12-05T10:43:41.139Z,68.74
2018-12-05T10:46:10.157Z,68.37
2018-12-05T10:48:40.599Z,68.27
2018-12-05T10:51:09.791Z,68.34
2018-12-05T10:53:38.978Z,68.53
2018-12-05T10:56:08.263Z,68.52
2018-12-05T10:58:37.053Z,68.64
2018-12-05T11:01:11.060Z,69.22
2018-12-05T11:03:39.783Z,68.71
2018-12-05T11:06:13.751Z,68.42
2018-12-05T11:09:46.467Z,68.69
2018-12-05T11:12:20.409Z,68.96
2018-12-05T11:14:54.454Z,68.49
2018-12-05T11:17:29.556Z,68.26
2018-12-05T11:20:02.407Z,67.92
2018-12-05T11:23:36.036Z,68.13
2018-12-05T11:26:11.830Z,68.44
2018-12-05T11:28:40.567Z,67.91
2018-12-05T11:31:09.819Z,67.88
2018-12-05T11:33:38.613Z,67.98
2018-12-05T11:36:08.085Z,68.41
2018-12-05T11:38:36.853Z,68.60
2018-12-05T11:41:05.644Z,68.21
2018-12-05T11:43:34.529Z,68.87
2018-12-05T11:46:03.585Z,69.05
2018-12-05T11:48:32.363Z,69.07
2018-12-05T11:51:01.111Z,68.79
2018-12-05T11:53:29.814Z,69.31
2018-12-05T11:55:58.558Z,68.54
2018-12-05T11:58:27.797Z,69.73
2018-12-05T12:00:57.724Z,68.71
2018-12-05T12:03:26.582Z,69.34
2018-12-05T12:05:55.329Z,69.01
2018-12-05T12:08:24.082Z,69.16
2018-12-05T12:10:53.417Z,69.19
2018-12-05T12:13:22.125Z,69.05
2018-12-05T12:15:50.857Z,68.78
2018-12-05T12:18:19.577Z,68.87
2018-12-05T12:20:48.324Z,68.75
2018-12-05T12:23:17.058Z,68.52
2018-12-05T12:25:45.843Z,67.91
2018-12-05T12:28:14.661Z,68.12
2018-12-05T12:30:43.465Z,68.89
2018-12-05T12:33:12.191Z,69.00
2018-12-05T12:35:41.038Z,69.04
2018-12-05T12:38:09.928Z,68.99
2018-12-05T12:40:38.666Z,68.58
2018-12-05T12:43:07.444Z,68.70
2018-12-05T12:45:36.184Z,68.76
2018-12-05T12:48:05.587Z,68.77
2018-12-05T12:50:34.320Z,68.91
2018-12-05T12:53:03.013Z,69.12
2018-12-05T12:55:31.750Z,69.20
2018-12-05T12:58:00.493Z,69.37
2018-12-05T13:00:29.355Z,69.08
2018-12-05T13:02:58.126Z,68.64
2018-12-05T13:05:27.967Z,69.20
2018-12-05T13:07:56.756Z,68.93
2018-12-05T13:10:25.612Z,68.90
2018-12-05T13:12:55.240Z,68.69
2018-12-05T13:15:24.297Z,69.27
2018-12-05T13:17:59.664Z,69.08
2018-12-05T13:20:28.825Z,69.58
2018-12-05T13:22:57.797Z,68.86
2018-12-05T13:25:26.621Z,69.07
2018-12-05T13:27:55.344Z,68.98
2018-12-05T13:30:24.218Z,69.63
2018-12-05T13:32:53.167Z,69.48
2018-12-05T13:35:21.919Z,69.16
2018-12-05T13:37:50.639Z,69.30
2018-12-05T13:40:19.461Z,68.99
2018-12-05T13:42:48.238Z,69.50
2018-12-05T13:45:17.464Z,69.66
2018-12-05T13:47:46.272Z,69.42
2018-12-05T13:50:15.999Z,69.31
2018-12-05T13:52:45.156Z,69.62
2018-12-05T13:55:14.759Z,68.83
2018-12-05T13:57:43.533Z,69.43
2018-12-05T14:00:12.338Z,69.23
2018-12-05T14:02:41.172Z,68.97
2018-12-05T14:05:10.085Z,69.38
2018-12-05T14:07:38.980Z,69.09
2018-12-05T14:10:09.604Z,68.65
2018-12-05T14:12:39.433Z,68.60
2018-12-05T14:15:10.254Z,68.80
2018-12-05T14:17:39.058Z,68.62
2018-12-05T14:20:09.534Z,68.68
2018-12-05T14:22:38.310Z,68.67
2018-12-05T14:25:08.756Z,68.91
2018-12-05T14:27:37.863Z,68.44
2018-12-05T14:30:09.724Z,68.71
2018-12-05T14:32:38.531Z,68.38
2018-12-05T14:35:07.738Z,68.19
2018-12-05T14:37:36.501Z,68.46
2018-12-05T14:40:06.409Z,68.22
2018-12-05T14:42:35.094Z,67.90
2018-12-05T14:45:04.346Z,68.09
2018-12-05T14:47:33.537Z,68.01
2018-12-05T14:50:02.312Z,67.97
2018-12-05T14:52:31.012Z,67.38
2018-12-05T14:54:59.746Z,67.32
2018-12-05T14:57:28.501Z,66.79
2018-12-05T14:59:57.243Z,66.72
2018-12-05T15:02:25.952Z,66.13
2018-12-05T15:04:54.723Z,65.75
2018-12-05T15:07:23.481Z,65.64
2018-12-05T15:09:52.299Z,65.43
2018-12-05T15:12:21.047Z,65.36
2018-12-05T15:14:49.825Z,64.56
2018-12-05T15:17:18.555Z,64.55
2018-12-05T15:19:47.297Z,64.80
2018-12-05T15:22:16.194Z,64.17
2018-12-05T15:24:45.986Z,64.12
2018-12-05T15:27:14.831Z,63.95
2018-12-05T15:29:43.633Z,63.99
2018-12-05T15:32:12.922Z,63.58
2018-12-05T15:34:41.837Z,63.34
2018-12-05T15:37:10.642Z,63.17
2018-12-05T15:39:39.391Z,63.45
2018-12-05T15:42:08.134Z,63.41
2018-12-05T15:44:36.894Z,63.26
2018-12-05T15:47:05.643Z,62.95
2018-12-05T15:49:34.588Z,63.22
2018-12-05T15:52:03.348Z,63.25
2018-12-05T15:54:32.135Z,63.14
2018-12-05T15:57:00.900Z,62.74
2018-12-05T15:59:29.681Z,62.55
2018-12-05T16:01:58.516Z,62.61
2018-12-05T16:04:27.257Z,62.63
2018-12-05T16:06:56.014Z,62.10
2018-12-05T16:09:24.741Z,62.64
2018-12-05T16:11:53.541Z,62.79
2018-12-05T16:14:22.256Z,62.59
2018-12-05T16:16:51.083Z,62.47
2018-12-05T16:19:19.804Z,62.39
2018-12-05T16:21:48.491Z,62.14
2018-12-05T16:24:17.198Z,62.15
2018-12-05T16:26:45.991Z,61.97
2018-12-05T16:29:14.769Z,61.94
2018-12-05T16:31:43.503Z,61.87
2018-12-05T16:34:12.313Z,62.01
2018-12-05T16:36:41.055Z,62.19
2018-12-05T16:39:10.415Z,61.89
2018-12-05T16:41:39.471Z,62.33
2018-12-05T16:44:12.879Z,62.28
2018-12-05T16:46:39.061Z,62.48
2018-12-05T16:49:07.900Z,62.59
2018-12-05T16:51:36.829Z,62.86
2018-12-05T16:54:06.230Z,62.81
2018-12-05T16:56:34.989Z,63.43
2018-12-05T16:59:04.266Z,62.74
2018-12-05T17:01:33.079Z,63.54
2018-12-05T17:04:02.278Z,63.51
2018-12-05T17:06:31.059Z,63.64
2018-12-05T17:09:01.404Z,63.53
2018-12-05T17:11:30.871Z,63.79
2018-12-05T17:13:59.575Z,63.67
2018-12-05T17:16:28.343Z,64.04
2018-12-05T17:18:57.064Z,64.12
2018-12-05T17:21:25.789Z,64.00
2018-12-05T17:24:03.423Z,64.16
2018-12-05T17:26:32.388Z,63.84
2018-12-05T17:29:01.156Z,64.17
2018-12-05T17:31:29.907Z,63.92
2018-12-05T17:33:58.692Z,64.02
2018-12-05T17:36:27.530Z,63.96
2018-12-05T17:38:56.329Z,63.74
2018-12-05T17:41:25.110Z,64.08
2018-12-05T17:43:53.881Z,63.74
2018-12-05T17:46:22.678Z,63.63
2018-12-05T17:48:51.460Z,64.06
2018-12-05T17:51:20.254Z,63.94
2018-12-05T17:53:49.022Z,63.73
2018-12-05T17:56:18.241Z,63.80
2018-12-05T17:58:47.039Z,64.26
2018-12-05T18:01:15.881Z,63.09
2018-12-05T18:03:44.596Z,63.34
2018-12-05T18:06:13.353Z,62.92
2018-12-05T18:08:42.155Z,62.91
2018-12-05T18:11:10.969Z,62.54
2018-12-05T18:13:39.754Z,62.20
2018-12-05T18:16:08.632Z,62.33
2018-12-05T18:18:37.463Z,62.07
2018-12-05T18:21:06.195Z,62.38
2018-12-05T18:23:34.932Z,61.77
2018-12-05T18:26:03.757Z,62.19
2018-12-05T18:28:32.531Z,62.40
2018-12-05T18:31:01.477Z,61.86
2018-12-05T18:33:30.670Z,62.33
2018-12-05T18:35:59.403Z,62.33
2018-12-05T18:38:29.133Z,62.49
2018-12-05T18:40:57.937Z,62.44
2018-12-05T18:43:26.878Z,62.62
2018-12-05T18:45:55.898Z,62.04
2018-12-05T18:48:25.175Z,62.43
2018-12-05T18:50:53.895Z,62.46
2018-12-05T18:53:22.812Z,62.18
2018-12-05T18:55:51.570Z,62.08
2018-12-05T18:58:20.369Z,62.27
2018-12-05T19:00:50.326Z,62.63
2018-12-05T19:03:19.067Z,62.60
2018-12-05T19:05:47.878Z,62.67
2018-12-05T19:08:17.114Z,62.17
2018-12-05T19:10:46.268Z,62.51
2018-12-05T19:13:15.482Z,62.92
2018-12-05T19:15:45.328Z,62.00
2018-12-05T19:18:14.707Z,62.82
2018-12-05T19:20:43.911Z,62.27
2018-12-05T19:23:13.310Z,62.64
2018-12-05T19:25:42.783Z,62.42
2018-12-05T19:28:12.284Z,62.51
2018-12-05T19:30:41.859Z,62.76
2018-12-05T19:33:11.108Z,62.86
2018-12-05T19:35:40.399Z,62.46
2018-12-05T19:38:09.139Z,62.48
2018-12-05T19:40:38.082Z,62.67
2018-12-05T19:43:07.012Z,62.93
2018-12-05T19:45:36.009Z,63.06
2018-12-05T19:48:04.776Z,62.92
2018-12-05T19:50:33.600Z,63.10
2018-12-05T19:53:02.464Z,63.07
2018-12-05T19:55:31.374Z,63.29
2018-12-05T19:58:00.164Z,63.61
2018-12-05T20:00:29.481Z,63.75
2018-12-05T20:02:58.300Z,64.25
2018-12-05T20:05:28.077Z,64.42
2018-12-05T20:07:58.108Z,64.40
2018-12-05T20:10:28.500Z,64.13
2018-12-05T20:12:57.424Z,64.38
2018-12-05T20:15:26.498Z,64.50
2018-12-05T20:17:56.160Z,64.25
2018-12-05T20:20:32.457Z,63.81
2018-12-05T20:23:03.721Z,63.81
2018-12-05T20:25:32.682Z,64.45
2018-12-05T20:28:01.599Z,64.52
2018-12-05T20:30:34.258Z,64.83
2018-12-05T20:33:03.134Z,64.88
2018-12-05T20:35:31.976Z,64.62
2018-12-05T20:38:00.874Z,65.03
2018-12-05T20:40:29.644Z,64.75
2018-12-05T20:42:58.540Z,64.86
2018-12-05T20:45:27.341Z,65.14
2018-12-05T20:47:56.708Z,65.11
2018-12-05T20:50:27.491Z,65.05
2018-12-05T20:52:57.217Z,64.80
2018-12-05T20:55:26.128Z,64.58
2018-12-05T20:57:54.955Z,64.81
2018-12-05T21:00:23.785Z,64.70
2018-12-05T21:02:52.992Z,64.55
2018-12-05T21:05:21.881Z,64.35
2018-12-05T21:07:50.823Z,64.64
2018-12-05T21:10:19.638Z,64.36
2018-12-05T21:12:48.415Z,64.49
2018-12-05T21:15:17.226Z,64.66
2018-12-05T21:17:45.945Z,64.87
2018-12-05T21:20:14.683Z,64.67
2018-12-05T21:22:47.117Z,65.01
2018-12-05T21:25:14.232Z,64.27
2018-12-05T21:27:43.025Z,64.87
2018-12-05T21:30:13.542Z,64.63
2018-12-05T21:32:42.257Z,64.83
2018-12-05T21:35:10.980Z,65.19
2018-12-05T21:37:39.783Z,65.26
2018-12-05T21:40:09.195Z,65.08
2018-12-05T21:42:38.002Z,65.14
2018-12-05T21:45:07.658Z,65.57
2018-12-05T21:47:36.484Z,65.23
2018-12-05T21:50:05.970Z,65.19
2018-12-05T21:52:34.726Z,64.67
2018-12-05T21:55:04.017Z,64.79
2018-12-05T21:57:32.775Z,64.90
2018-12-05T22:00:01.584Z,64.76
2018-12-05T22:02:30.340Z,65.10
2018-12-05T22:04:59.354Z,65.26
2018-12-05T22:07:28.102Z,65.49
2018-12-05T22:09:56.942Z,65.56
2018-12-05T22:12:25.707Z,65.16
2018-12-05T22:14:54.466Z,65.31
2018-12-05T22:17:23.247Z,65.35
2018-12-05T22:19:52.167Z,65.56
2018-12-05T22:22:21.057Z,65.66
2018-12-05T22:24:49.848Z,65.67
2018-12-05T22:27:18.610Z,64.78
2018-12-05T22:29:47.352Z,65.78
2018-12-05T22:32:16.478Z,65.35
2018-12-05T22:34:45.274Z,65.96
2018-12-05T22:37:14.041Z,65.37
2018-12-05T22:39:42.832Z,65.47
2018-12-05T22:42:11.591Z,65.23
2018-12-05T22:44:40.406Z,65.14
2018-12-05T22:47:09.151Z,65.30
2018-12-05T22:49:37.861Z,65.46
2018-12-05T22:52:06.539Z,65.35
2018-12-05T22:54:35.314Z,64.95
2018-12-05T22:57:12.671Z,64.72
2018-12-05T22:59:41.855Z,65.14
2018-12-05T23:02:11.216Z,65.09
2018-12-05T23:04:39.912Z,64.95
2018-12-05T23:07:08.664Z,64.66
2018-12-05T23:09:37.434Z,64.69
2018-12-05T23:12:06.205Z,64.69
2018-12-05T23:14:35.017Z,64.90
2018-12-05T23:17:04.153Z,65.12
2018-12-05T23:19:32.904Z,64.80
2018-12-05T23:22:01.719Z,65.33
2018-12-05T23:24:30.503Z,65.51
2018-12-05T23:26:59.290Z,65.30
2018-12-05T23:29:28.569Z,65.61
2018-12-05T23:31:57.339Z,65.70
2018-12-05T23:34:26.029Z,65.81
2018-12-05T23:36:54.757Z,65.57
2018-12-05T23:39:23.467Z,66.07
2018-12-05T23:41:52.211Z,65.82
2018-12-05T23:44:20.923Z,66.01
2018-12-05T23:46:49.639Z,66.30
2018-12-05T23:49:18.372Z,66.56
2018-12-05T23:51:56.021Z,66.76
2018-12-05T23:54:25.032Z,66.40
2018-12-05T23:56:53.812Z,66.82
2018-12-05T23:59:22.514Z,66.26
